sensor_id;sensor_type;location;lat;lon;timestamp;P1;durP1;ratioP1;P2;durP2;ratioP2
66946;SDS011;53853;51.982;5.928;2022-07-24T00:01:49;4.28;;;3.78;;
66946;SDS011;53853;51.982;5.928;2022-07-24T00:04:19;4.22;;;3.58;;
66946;SDS011;53853;51.982;5.928;2022-07-24T00:06:49;5.28;;;3.40;;
66946;SDS011;53853;51.982;5.928;2022-07-24T00:09:21;4.35;;;3.90;;
66946;SDS011;53853;51.982;5.928;2022-07-24T00:11:51;4.75;;;3.10;;
66946;SDS011;53853;51.982;5.928;2022-07-24T00:14:21;4.07;;;3.25;;
66946;SDS011;53853;51.982;5.928;2022-07-24T00:16:51;4.38;;;3.83;;
66946;SDS011;53853;51.982;5.928;2022-07-24T00:19:21;4.30;;;2.97;;
66946;SDS011;53853;51.982;5.928;2022-07-24T00:21:51;5.30;;;4.07;;
66946;SDS011;53853;51.982;5.928;2022-07-24T00:24:25;4.70;;;4.00;;
66946;SDS011;53853;51.982;5.928;2022-07-24T00:26:55;6.38;;;3.55;;
66946;SDS011;53853;51.982;5.928;2022-07-24T00:29:26;4.45;;;3.72;;
66946;SDS011;53853;51.982;5.928;2022-07-24T00:31:56;6.60;;;3.70;;
66946;SDS011;53853;51.982;5.928;2022-07-24T00:34:26;5.10;;;2.90;;
66946;SDS011;53853;51.982;5.928;2022-07-24T00:36:56;4.63;;;4.13;;
66946;SDS011;53853;51.982;5.928;2022-07-24T00:39:28;3.97;;;3.58;;
66946;SDS011;53853;51.982;5.928;2022-07-24T00:41:58;6.13;;;4.72;;
66946;SDS011;53853;51.982;5.928;2022-07-24T00:44:28;6.82;;;4.78;;
66946;SDS011;53853;51.982;5.928;2022-07-24T00:46:58;5.10;;;4.28;;
66946;SDS011;53853;51.982;5.928;2022-07-24T00:49:28;4.97;;;4.47;;
66946;SDS011;53853;51.982;5.928;2022-07-24T00:51:58;5.72;;;4.47;;
66946;SDS011;53853;51.982;5.928;2022-07-24T00:54:31;4.93;;;3.85;;
66946;SDS011;53853;51.982;5.928;2022-07-24T00:57:01;6.03;;;4.22;;
66946;SDS011;53853;51.982;5.928;2022-07-24T00:59:31;5.80;;;4.38;;
66946;SDS011;53853;51.982;5.928;2022-07-24T01:02:01;6.13;;;5.28;;
66946;SDS011;53853;51.982;5.928;2022-07-24T01:04:31;6.05;;;4.30;;
66946;SDS011;53853;51.982;5.928;2022-07-24T01:07:01;5.93;;;4.20;;
66946;SDS011;53853;51.982;5.928;2022-07-24T01:09:34;10.57;;;8.80;;
66946;SDS011;53853;51.982;5.928;2022-07-24T01:12:05;6.28;;;5.68;;
66946;SDS011;53853;51.982;5.928;2022-07-24T01:14:35;6.95;;;4.90;;
66946;SDS011;53853;51.982;5.928;2022-07-24T01:17:05;6.13;;;4.82;;
66946;SDS011;53853;51.982;5.928;2022-07-24T01:19:35;4.43;;;4.03;;
66946;SDS011;53853;51.982;5.928;2022-07-24T01:22:07;5.55;;;4.90;;
66946;SDS011;53853;51.982;5.928;2022-07-24T01:24:37;6.00;;;4.53;;
66946;SDS011;53853;51.982;5.928;2022-07-24T01:27:07;5.07;;;4.57;;
66946;SDS011;53853;51.982;5.928;2022-07-24T01:29:37;5.95;;;5.25;;
66946;SDS011;53853;51.982;5.928;2022-07-24T01:32:07;5.88;;;5.05;;
66946;SDS011;53853;51.982;5.928;2022-07-24T01:34:37;5.85;;;5.10;;
66946;SDS011;53853;51.982;5.928;2022-07-24T01:37:09;5.70;;;5.05;;
66946;SDS011;53853;51.982;5.928;2022-07-24T01:39:39;7.15;;;5.55;;
66946;SDS011;53853;51.982;5.928;2022-07-24T01:42:09;6.55;;;5.30;;
66946;SDS011;53853;51.982;5.928;2022-07-24T01:44:39;6.18;;;5.30;;
66946;SDS011;53853;51.982;5.928;2022-07-24T01:47:09;6.28;;;4.97;;
66946;SDS011;53853;51.982;5.928;2022-07-24T01:49:39;5.80;;;4.95;;
66946;SDS011;53853;51.982;5.928;2022-07-24T01:52:12;6.85;;;5.80;;
66946;SDS011;53853;51.982;5.928;2022-07-24T01:54:42;5.68;;;4.90;;
66946;SDS011;53853;51.982;5.928;2022-07-24T01:57:11;4.82;;;4.25;;
66946;SDS011;53853;51.982;5.928;2022-07-24T01:59:41;6.57;;;4.90;;
66946;SDS011;53853;51.982;5.928;2022-07-24T02:02:11;6.35;;;5.18;;
66946;SDS011;53853;51.982;5.928;2022-07-24T02:04:42;5.97;;;5.10;;
66946;SDS011;53853;51.982;5.928;2022-07-24T02:07:14;5.43;;;4.65;;
66946;SDS011;53853;51.982;5.928;2022-07-24T02:09:44;6.80;;;5.10;;
66946;SDS011;53853;51.982;5.928;2022-07-24T02:12:14;6.18;;;5.05;;
66946;SDS011;53853;51.982;5.928;2022-07-24T02:14:44;5.63;;;5.10;;
66946;SDS011;53853;51.982;5.928;2022-07-24T02:17:14;6.53;;;5.47;;
66946;SDS011;53853;51.982;5.928;2022-07-24T02:19:43;7.60;;;6.50;;
66946;SDS011;53853;51.982;5.928;2022-07-24T02:22:16;6.57;;;5.10;;
66946;SDS011;53853;51.982;5.928;2022-07-24T02:24:46;5.82;;;5.22;;
66946;SDS011;53853;51.982;5.928;2022-07-24T02:27:16;7.43;;;5.75;;
66946;SDS011;53853;51.982;5.928;2022-07-24T02:29:46;6.45;;;4.82;;
66946;SDS011;53853;51.982;5.928;2022-07-24T02:32:15;5.15;;;4.07;;
66946;SDS011;53853;51.982;5.928;2022-07-24T02:34:45;5.82;;;4.82;;
66946;SDS011;53853;51.982;5.928;2022-07-24T02:37:18;7.43;;;5.90;;
66946;SDS011;53853;51.982;5.928;2022-07-24T02:39:48;7.63;;;5.68;;
66946;SDS011;53853;51.982;5.928;2022-07-24T02:42:18;4.85;;;4.35;;
66946;SDS011;53853;51.982;5.928;2022-07-24T02:44:48;6.13;;;5.53;;
66946;SDS011;53853;51.982;5.928;2022-07-24T02:47:18;6.00;;;5.40;;
66946;SDS011;53853;51.982;5.928;2022-07-24T02:49:48;6.85;;;4.40;;
66946;SDS011;53853;51.982;5.928;2022-07-24T02:52:20;5.65;;;4.95;;
66946;SDS011;53853;51.982;5.928;2022-07-24T02:54:50;6.47;;;5.85;;
66946;SDS011;53853;51.982;5.928;2022-07-24T02:57:20;6.32;;;5.72;;
66946;SDS011;53853;51.982;5.928;2022-07-24T02:59:50;5.70;;;5.10;;
66946;SDS011;53853;51.982;5.928;2022-07-24T03:02:19;6.90;;;6.20;;
66946;SDS011;53853;51.982;5.928;2022-07-24T03:04:49;6.35;;;5.70;;
66946;SDS011;53853;51.982;5.928;2022-07-24T03:07:22;7.13;;;5.82;;
66946;SDS011;53853;51.982;5.928;2022-07-24T03:09:52;6.38;;;5.78;;
66946;SDS011;53853;51.982;5.928;2022-07-24T03:12:22;7.72;;;5.72;;
66946;SDS011;53853;51.982;5.928;2022-07-24T03:14:52;8.35;;;6.45;;
66946;SDS011;53853;51.982;5.928;2022-07-24T03:17:21;10.10;;;6.72;;
66946;SDS011;53853;51.982;5.928;2022-07-24T03:19:51;6.88;;;5.93;;
66946;SDS011;53853;51.982;5.928;2022-07-24T03:22:24;8.48;;;5.97;;
66946;SDS011;53853;51.982;5.928;2022-07-24T03:24:54;7.15;;;5.85;;
66946;SDS011;53853;51.982;5.928;2022-07-24T03:27:24;7.40;;;6.25;;
66946;SDS011;53853;51.982;5.928;2022-07-24T03:29:54;9.60;;;7.03;;
66946;SDS011;53853;51.982;5.928;2022-07-24T03:32:24;7.50;;;6.70;;
66946;SDS011;53853;51.982;5.928;2022-07-24T03:34:53;7.97;;;6.40;;
66946;SDS011;53853;51.982;5.928;2022-07-24T03:37:26;6.85;;;6.15;;
66946;SDS011;53853;51.982;5.928;2022-07-24T03:39:56;6.45;;;5.30;;
66946;SDS011;53853;51.982;5.928;2022-07-24T03:42:26;7.22;;;6.07;;
66946;SDS011;53853;51.982;5.928;2022-07-24T03:44:56;6.85;;;6.07;;
66946;SDS011;53853;51.982;5.928;2022-07-24T03:47:25;8.18;;;6.05;;
66946;SDS011;53853;51.982;5.928;2022-07-24T03:49:55;8.18;;;6.65;;
66946;SDS011;53853;51.982;5.928;2022-07-24T03:52:28;7.13;;;6.20;;
66946;SDS011;53853;51.982;5.928;2022-07-24T03:54:58;6.93;;;5.85;;
66946;SDS011;53853;51.982;5.928;2022-07-24T03:57:28;7.32;;;6.32;;
66946;SDS011;53853;51.982;5.928;2022-07-24T03:59:58;6.60;;;5.40;;
66946;SDS011;53853;51.982;5.928;2022-07-24T04:02:38;8.05;;;6.93;;
66946;SDS011;53853;51.982;5.928;2022-07-24T04:05:09;7.75;;;6.15;;
66946;SDS011;53853;51.982;5.928;2022-07-24T04:07:41;7.55;;;6.60;;
66946;SDS011;53853;51.982;5.928;2022-07-24T04:10:11;11.23;;;7.63;;
66946;SDS011;53853;51.982;5.928;2022-07-24T04:12:41;6.93;;;6.25;;
66946;SDS011;53853;51.982;5.928;2022-07-24T04:15:11;8.15;;;7.30;;
66946;SDS011;53853;51.982;5.928;2022-07-24T04:17:41;8.45;;;6.22;;
66946;SDS011;53853;51.982;5.928;2022-07-24T04:20:12;9.15;;;6.90;;
66946;SDS011;53853;51.982;5.928;2022-07-24T04:22:45;7.75;;;6.95;;
66946;SDS011;53853;51.982;5.928;2022-07-24T04:25:15;8.57;;;7.18;;
66946;SDS011;53853;51.982;5.928;2022-07-24T04:27:44;8.05;;;7.18;;
66946;SDS011;53853;51.982;5.928;2022-07-24T04:30:15;10.45;;;7.95;;
66946;SDS011;53853;51.982;5.928;2022-07-24T04:32:45;8.18;;;6.93;;
66946;SDS011;53853;51.982;5.928;2022-07-24T04:35:15;9.95;;;7.95;;
66946;SDS011;53853;51.982;5.928;2022-07-24T04:37:48;7.20;;;6.50;;
66946;SDS011;53853;51.982;5.928;2022-07-24T04:40:18;8.70;;;6.82;;
66946;SDS011;53853;51.982;5.928;2022-07-24T04:42:47;8.85;;;7.43;;
66946;SDS011;53853;51.982;5.928;2022-07-24T04:45:17;10.57;;;7.55;;
66946;SDS011;53853;51.982;5.928;2022-07-24T04:47:47;8.15;;;7.32;;
66946;SDS011;53853;51.982;5.928;2022-07-24T04:50:17;8.77;;;7.15;;
66946;SDS011;53853;51.982;5.928;2022-07-24T04:52:50;8.07;;;7.07;;
66946;SDS011;53853;51.982;5.928;2022-07-24T04:55:20;7.07;;;6.15;;
66946;SDS011;53853;51.982;5.928;2022-07-24T04:57:50;7.18;;;6.38;;
66946;SDS011;53853;51.982;5.928;2022-07-24T05:00:19;8.88;;;6.85;;
66946;SDS011;53853;51.982;5.928;2022-07-24T05:02:49;7.95;;;6.88;;
66946;SDS011;53853;51.982;5.928;2022-07-24T05:05:19;8.07;;;6.95;;
66946;SDS011;53853;51.982;5.928;2022-07-24T05:07:52;6.72;;;6.03;;
66946;SDS011;53853;51.982;5.928;2022-07-24T05:10:22;10.07;;;6.35;;
66946;SDS011;53853;51.982;5.928;2022-07-24T05:12:52;8.13;;;7.32;;
66946;SDS011;53853;51.982;5.928;2022-07-24T05:15:22;9.13;;;7.85;;
66946;SDS011;53853;51.982;5.928;2022-07-24T05:17:52;7.25;;;6.45;;
66946;SDS011;53853;51.982;5.928;2022-07-24T05:20:22;6.40;;;5.80;;
66946;SDS011;53853;51.982;5.928;2022-07-24T05:22:54;9.20;;;8.30;;
66946;SDS011;53853;51.982;5.928;2022-07-24T05:25:24;9.77;;;8.77;;
66946;SDS011;53853;51.982;5.928;2022-07-24T05:27:54;10.07;;;9.18;;
66946;SDS011;53853;51.982;5.928;2022-07-24T05:30:24;11.13;;;9.70;;
66946;SDS011;53853;51.982;5.928;2022-07-24T05:32:54;9.13;;;8.13;;
66946;SDS011;53853;51.982;5.928;2022-07-24T05:35:24;9.00;;;8.10;;
66946;SDS011;53853;51.982;5.928;2022-07-24T05:37:56;12.07;;;10.82;;
66946;SDS011;53853;51.982;5.928;2022-07-24T05:40:26;11.10;;;10.00;;
66946;SDS011;53853;51.982;5.928;2022-07-24T05:42:56;12.88;;;11.57;;
66946;SDS011;53853;51.982;5.928;2022-07-24T05:45:26;12.25;;;10.93;;
66946;SDS011;53853;51.982;5.928;2022-07-24T05:47:56;14.77;;;12.60;;
66946;SDS011;53853;51.982;5.928;2022-07-24T05:50:26;12.68;;;11.13;;
66946;SDS011;53853;51.982;5.928;2022-07-24T05:52:58;12.10;;;10.90;;
66946;SDS011;53853;51.982;5.928;2022-07-24T05:55:28;16.23;;;13.27;;
66946;SDS011;53853;51.982;5.928;2022-07-24T05:57:58;13.95;;;12.65;;
66946;SDS011;53853;51.982;5.928;2022-07-24T06:00:28;12.68;;;9.68;;
66946;SDS011;53853;51.982;5.928;2022-07-24T06:02:58;10.63;;;9.63;;
66946;SDS011;53853;51.982;5.928;2022-07-24T06:05:28;12.35;;;9.98;;
66946;SDS011;53853;51.982;5.928;2022-07-24T06:08:01;9.45;;;8.45;;
66946;SDS011;53853;51.982;5.928;2022-07-24T06:10:31;21.15;;;18.73;;
66946;SDS011;53853;51.982;5.928;2022-07-24T06:13:01;14.55;;;13.05;;
66946;SDS011;53853;51.982;5.928;2022-07-24T06:15:31;20.63;;;17.98;;
66946;SDS011;53853;51.982;5.928;2022-07-24T06:18:00;16.58;;;14.80;;
66946;SDS011;53853;51.982;5.928;2022-07-24T06:20:31;16.48;;;14.77;;
66946;SDS011;53853;51.982;5.928;2022-07-24T06:23:03;18.58;;;16.67;;
66946;SDS011;53853;51.982;5.928;2022-07-24T06:25:34;16.10;;;14.45;;
66946;SDS011;53853;51.982;5.928;2022-07-24T06:28:03;17.08;;;14.80;;
66946;SDS011;53853;51.982;5.928;2022-07-24T06:30:33;18.90;;;15.45;;
66946;SDS011;53853;51.982;5.928;2022-07-24T06:33:03;17.13;;;13.10;;
66946;SDS011;53853;51.982;5.928;2022-07-24T06:35:33;17.23;;;13.50;;
66946;SDS011;53853;51.982;5.928;2022-07-24T06:38:06;16.42;;;13.95;;
66946;SDS011;53853;51.982;5.928;2022-07-24T06:40:36;10.10;;;9.02;;
66946;SDS011;53853;51.982;5.928;2022-07-24T06:43:06;17.45;;;14.20;;
66946;SDS011;53853;51.982;5.928;2022-07-24T06:45:36;16.35;;;14.20;;
66946;SDS011;53853;51.982;5.928;2022-07-24T06:48:06;14.82;;;13.25;;
66946;SDS011;53853;51.982;5.928;2022-07-24T06:50:36;15.88;;;14.07;;
66946;SDS011;53853;51.982;5.928;2022-07-24T06:53:08;14.63;;;12.50;;
66946;SDS011;53853;51.982;5.928;2022-07-24T06:55:40;13.73;;;10.73;;
66946;SDS011;53853;51.982;5.928;2022-07-24T06:58:10;13.38;;;9.43;;
66946;SDS011;53853;51.982;5.928;2022-07-24T07:00:40;15.98;;;10.88;;
66946;SDS011;53853;51.982;5.928;2022-07-24T07:03:10;14.63;;;11.52;;
66946;SDS011;53853;51.982;5.928;2022-07-24T07:05:40;14.27;;;11.70;;
66946;SDS011;53853;51.982;5.928;2022-07-24T07:08:12;11.63;;;9.30;;
66946;SDS011;53853;51.982;5.928;2022-07-24T07:10:42;11.52;;;10.43;;
66946;SDS011;53853;51.982;5.928;2022-07-24T07:13:12;10.77;;;8.60;;
66946;SDS011;53853;51.982;5.928;2022-07-24T07:15:42;7.90;;;6.97;;
66946;SDS011;53853;51.982;5.928;2022-07-24T07:18:12;7.40;;;6.38;;
66946;SDS011;53853;51.982;5.928;2022-07-24T07:20:42;9.77;;;7.20;;
66946;SDS011;53853;51.982;5.928;2022-07-24T07:23:16;10.27;;;8.25;;
66946;SDS011;53853;51.982;5.928;2022-07-24T07:25:46;11.30;;;8.45;;
66946;SDS011;53853;51.982;5.928;2022-07-24T07:28:15;8.40;;;7.50;;
66946;SDS011;53853;51.982;5.928;2022-07-24T07:30:45;12.20;;;8.77;;
66946;SDS011;53853;51.982;5.928;2022-07-24T07:33:15;8.13;;;7.15;;
66946;SDS011;53853;51.982;5.928;2022-07-24T07:35:45;10.23;;;7.68;;
66946;SDS011;53853;51.982;5.928;2022-07-24T07:38:18;9.05;;;6.95;;
66946;SDS011;53853;51.982;5.928;2022-07-24T07:40:49;7.18;;;4.85;;
66946;SDS011;53853;51.982;5.928;2022-07-24T07:43:18;8.25;;;6.78;;
66946;SDS011;53853;51.982;5.928;2022-07-24T07:45:48;7.88;;;6.20;;
66946;SDS011;53853;51.982;5.928;2022-07-24T07:48:21;7.57;;;5.65;;
66946;SDS011;53853;51.982;5.928;2022-07-24T07:50:51;8.32;;;5.97;;
66946;SDS011;53853;51.982;5.928;2022-07-24T07:53:23;7.60;;;5.57;;
66946;SDS011;53853;51.982;5.928;2022-07-24T07:55:53;7.40;;;5.30;;
66946;SDS011;53853;51.982;5.928;2022-07-24T07:58:23;8.18;;;5.45;;
66946;SDS011;53853;51.982;5.928;2022-07-24T08:00:54;5.90;;;4.82;;
66946;SDS011;53853;51.982;5.928;2022-07-24T08:03:24;6.68;;;4.85;;
66946;SDS011;53853;51.982;5.928;2022-07-24T08:05:54;9.10;;;4.70;;
66946;SDS011;53853;51.982;5.928;2022-07-24T08:08:26;8.57;;;4.97;;
66946;SDS011;53853;51.982;5.928;2022-07-24T08:10:56;8.68;;;5.05;;
66946;SDS011;53853;51.982;5.928;2022-07-24T08:13:26;6.22;;;4.22;;
66946;SDS011;53853;51.982;5.928;2022-07-24T08:15:56;3.97;;;3.10;;
66946;SDS011;53853;51.982;5.928;2022-07-24T08:18:26;5.93;;;4.30;;
66946;SDS011;53853;51.982;5.928;2022-07-24T08:20:56;5.10;;;3.90;;
66946;SDS011;53853;51.982;5.928;2022-07-24T08:23:28;6.00;;;4.90;;
66946;SDS011;53853;51.982;5.928;2022-07-24T08:25:58;4.75;;;3.78;;
66946;SDS011;53853;51.982;5.928;2022-07-24T08:28:28;4.72;;;4.18;;
66946;SDS011;53853;51.982;5.928;2022-07-24T08:30:58;5.05;;;3.58;;
66946;SDS011;53853;51.982;5.928;2022-07-24T08:33:28;6.43;;;4.43;;
66946;SDS011;53853;51.982;5.928;2022-07-24T08:35:58;5.60;;;4.18;;
66946;SDS011;53853;51.982;5.928;2022-07-24T08:38:31;8.30;;;5.05;;
66946;SDS011;53853;51.982;5.928;2022-07-24T08:41:00;6.18;;;4.03;;
66946;SDS011;53853;51.982;5.928;2022-07-24T08:43:31;6.70;;;4.13;;
66946;SDS011;53853;51.982;5.928;2022-07-24T08:46:02;5.35;;;4.05;;
66946;SDS011;53853;51.982;5.928;2022-07-24T08:48:35;4.78;;;3.63;;
66946;SDS011;53853;51.982;5.928;2022-07-24T08:51:10;5.35;;;3.58;;
66946;SDS011;53853;51.982;5.928;2022-07-24T08:53:44;5.13;;;3.55;;
66946;SDS011;53853;51.982;5.928;2022-07-24T08:58:45;4.50;;;3.50;;
66946;SDS011;53853;51.982;5.928;2022-07-24T09:01:15;4.15;;;3.20;;
66946;SDS011;53853;51.982;5.928;2022-07-24T09:03:46;4.95;;;3.55;;
66946;SDS011;53853;51.982;5.928;2022-07-24T09:06:16;4.55;;;3.30;;
66946;SDS011;53853;51.982;5.928;2022-07-24T09:08:58;5.40;;;3.83;;
66946;SDS011;53853;51.982;5.928;2022-07-24T09:11:29;4.75;;;3.45;;
66946;SDS011;53853;51.982;5.928;2022-07-24T09:14:04;3.67;;;3.13;;
66946;SDS011;53853;51.982;5.928;2022-07-24T09:16:47;3.78;;;2.95;;
66946;SDS011;53853;51.982;5.928;2022-07-24T09:19:18;3.78;;;2.85;;
66946;SDS011;53853;51.982;5.928;2022-07-24T09:21:48;3.67;;;2.45;;
66946;SDS011;53853;51.982;5.928;2022-07-24T09:24:21;5.63;;;2.63;;
66946;SDS011;53853;51.982;5.928;2022-07-24T09:26:52;3.65;;;2.28;;
66946;SDS011;53853;51.982;5.928;2022-07-24T09:29:24;5.78;;;4.00;;
66946;SDS011;53853;51.982;5.928;2022-07-24T09:31:55;3.70;;;2.97;;
66946;SDS011;53853;51.982;5.928;2022-07-24T09:34:27;4.07;;;2.95;;
66946;SDS011;53853;51.982;5.928;2022-07-24T09:37:06;4.70;;;2.70;;
66946;SDS011;53853;51.982;5.928;2022-07-24T09:39:41;3.13;;;2.57;;
66946;SDS011;53853;51.982;5.928;2022-07-24T09:42:12;4.13;;;2.90;;
66946;SDS011;53853;51.982;5.928;2022-07-24T09:44:42;4.60;;;3.58;;
66946;SDS011;53853;51.982;5.928;2022-07-24T09:47:13;4.30;;;2.90;;
66946;SDS011;53853;51.982;5.928;2022-07-24T09:49:46;5.40;;;2.78;;
66946;SDS011;53853;51.982;5.928;2022-07-24T09:52:17;4.32;;;2.65;;
66946;SDS011;53853;51.982;5.928;2022-07-24T09:54:51;4.07;;;2.88;;
66946;SDS011;53853;51.982;5.928;2022-07-24T09:57:22;4.40;;;3.15;;
66946;SDS011;53853;51.982;5.928;2022-07-24T09:59:54;4.65;;;2.65;;
66946;SDS011;53853;51.982;5.928;2022-07-24T10:02:27;3.45;;;3.05;;
66946;SDS011;53853;51.982;5.928;2022-07-24T10:04:59;5.43;;;3.38;;
66946;SDS011;53853;51.982;5.928;2022-07-24T10:07:32;5.22;;;3.60;;
66946;SDS011;53853;51.982;5.928;2022-07-24T10:10:05;3.35;;;2.45;;
66946;SDS011;53853;51.982;5.928;2022-07-24T10:12:36;4.32;;;2.35;;
66946;SDS011;53853;51.982;5.928;2022-07-24T10:15:07;2.85;;;2.08;;
66946;SDS011;53853;51.982;5.928;2022-07-24T10:17:43;3.13;;;2.35;;
66946;SDS011;53853;51.982;5.928;2022-07-24T10:20:45;3.53;;;2.22;;
66946;SDS011;53853;51.982;5.928;2022-07-24T10:23:23;3.63;;;2.47;;
66946;SDS011;53853;51.982;5.928;2022-07-24T10:26:01;5.25;;;2.60;;
66946;SDS011;53853;51.982;5.928;2022-07-24T10:28:37;3.00;;;2.40;;
66946;SDS011;53853;51.982;5.928;2022-07-24T10:31:09;3.63;;;2.72;;
66946;SDS011;53853;51.982;5.928;2022-07-24T10:33:42;3.33;;;2.30;;
66946;SDS011;53853;51.982;5.928;2022-07-24T10:36:17;3.75;;;2.78;;
66946;SDS011;53853;51.982;5.928;2022-07-24T10:38:55;4.93;;;2.20;;
66946;SDS011;53853;51.982;5.928;2022-07-24T10:41:31;2.95;;;2.47;;
66946;SDS011;53853;51.982;5.928;2022-07-24T10:44:14;3.83;;;3.00;;
66946;SDS011;53853;51.982;5.928;2022-07-24T10:46:59;3.63;;;2.42;;
66946;SDS011;53853;51.982;5.928;2022-07-24T10:49:41;3.45;;;2.83;;
66946;SDS011;53853;51.982;5.928;2022-07-24T10:52:26;3.47;;;2.50;;
66946;SDS011;53853;51.982;5.928;2022-07-24T10:57:58;4.30;;;3.03;;
66946;SDS011;53853;51.982;5.928;2022-07-24T11:00:30;4.93;;;3.38;;
66946;SDS011;53853;51.982;5.928;2022-07-24T11:03:03;4.43;;;2.53;;
66946;SDS011;53853;51.982;5.928;2022-07-24T11:05:35;3.70;;;2.72;;
66946;SDS011;53853;51.982;5.928;2022-07-24T11:08:12;2.97;;;2.08;;
66946;SDS011;53853;51.982;5.928;2022-07-24T11:11:13;3.30;;;2.65;;
66946;SDS011;53853;51.982;5.928;2022-07-24T11:16:31;3.42;;;2.47;;
66946;SDS011;53853;51.982;5.928;2022-07-24T11:22:01;3.88;;;2.67;;
66946;SDS011;53853;51.982;5.928;2022-07-24T11:24:40;3.55;;;2.72;;
66946;SDS011;53853;51.982;5.928;2022-07-24T11:27:40;3.75;;;2.65;;
66946;SDS011;53853;51.982;5.928;2022-07-24T11:30:17;4.75;;;2.65;;
66946;SDS011;53853;51.982;5.928;2022-07-24T11:32:48;2.88;;;2.42;;
66946;SDS011;53853;51.982;5.928;2022-07-24T11:35:25;4.60;;;2.95;;
66946;SDS011;53853;51.982;5.928;2022-07-24T11:38:04;5.40;;;3.67;;
66946;SDS011;53853;51.982;5.928;2022-07-24T11:40:35;3.67;;;2.60;;
66946;SDS011;53853;51.982;5.928;2022-07-24T11:43:06;3.92;;;2.58;;
66946;SDS011;53853;51.982;5.928;2022-07-24T11:45:40;4.75;;;2.80;;
66946;SDS011;53853;51.982;5.928;2022-07-24T11:48:20;4.20;;;2.97;;
66946;SDS011;53853;51.982;5.928;2022-07-24T11:51:01;4.95;;;2.88;;
66946;SDS011;53853;51.982;5.928;2022-07-24T11:53:32;3.58;;;2.28;;
66946;SDS011;53853;51.982;5.928;2022-07-24T11:56:02;4.40;;;3.17;;
66946;SDS011;53853;51.982;5.928;2022-07-24T11:58:37;3.13;;;2.50;;
66946;SDS011;53853;51.982;5.928;2022-07-24T12:01:21;4.43;;;2.80;;
66946;SDS011;53853;51.982;5.928;2022-07-24T12:03:52;3.75;;;2.67;;
66946;SDS011;53853;51.982;5.928;2022-07-24T12:06:26;3.00;;;2.33;;
66946;SDS011;53853;51.982;5.928;2022-07-24T12:08:56;3.03;;;2.30;;
66946;SDS011;53853;51.982;5.928;2022-07-24T12:11:33;5.65;;;2.45;;
66946;SDS011;53853;51.982;5.928;2022-07-24T12:14:04;4.28;;;2.95;;
66946;SDS011;53853;51.982;5.928;2022-07-24T12:16:36;3.42;;;2.30;;
66946;SDS011;53853;51.982;5.928;2022-07-24T12:19:13;3.60;;;2.38;;
66946;SDS011;53853;51.982;5.928;2022-07-24T12:21:44;5.57;;;4.03;;
66946;SDS011;53853;51.982;5.928;2022-07-24T12:24:15;4.13;;;2.42;;
66946;SDS011;53853;51.982;5.928;2022-07-24T12:26:49;4.45;;;2.50;;
66946;SDS011;53853;51.982;5.928;2022-07-24T12:29:21;3.85;;;2.88;;
66946;SDS011;53853;51.982;5.928;2022-07-24T12:31:54;4.30;;;2.85;;
66946;SDS011;53853;51.982;5.928;2022-07-24T12:34:42;4.07;;;2.72;;
66946;SDS011;53853;51.982;5.928;2022-07-24T12:37:14;3.55;;;2.58;;
66946;SDS011;53853;51.982;5.928;2022-07-24T12:39:45;3.30;;;2.50;;
66946;SDS011;53853;51.982;5.928;2022-07-24T12:42:16;3.08;;;1.92;;
66946;SDS011;53853;51.982;5.928;2022-07-24T12:44:46;4.93;;;2.40;;
66946;SDS011;53853;51.982;5.928;2022-07-24T12:47:19;2.72;;;1.70;;
66946;SDS011;53853;51.982;5.928;2022-07-24T12:49:49;3.53;;;2.90;;
66946;SDS011;53853;51.982;5.928;2022-07-24T12:52:19;2.53;;;2.03;;
66946;SDS011;53853;51.982;5.928;2022-07-24T12:54:51;3.45;;;2.53;;
66946;SDS011;53853;51.982;5.928;2022-07-24T12:57:21;4.13;;;2.80;;
66946;SDS011;53853;51.982;5.928;2022-07-24T12:59:51;3.70;;;2.70;;
66946;SDS011;53853;51.982;5.928;2022-07-24T13:02:33;3.70;;;2.80;;
66946;SDS011;53853;51.982;5.928;2022-07-24T13:05:03;5.03;;;2.50;;
66946;SDS011;53853;51.982;5.928;2022-07-24T13:07:33;3.45;;;2.15;;
66946;SDS011;53853;51.982;5.928;2022-07-24T13:10:04;3.17;;;2.17;;
66946;SDS011;53853;51.982;5.928;2022-07-24T13:12:34;4.78;;;2.70;;
66946;SDS011;53853;51.982;5.928;2022-07-24T13:15:04;4.13;;;2.30;;
66946;SDS011;53853;51.982;5.928;2022-07-24T13:17:37;3.15;;;2.42;;
66946;SDS011;53853;51.982;5.928;2022-07-24T13:20:10;3.03;;;2.50;;
66946;SDS011;53853;51.982;5.928;2022-07-24T13:22:40;3.28;;;2.33;;
66946;SDS011;53853;51.982;5.928;2022-07-24T13:25:10;2.95;;;2.15;;
66946;SDS011;53853;51.982;5.928;2022-07-24T13:27:40;2.70;;;2.08;;
66946;SDS011;53853;51.982;5.928;2022-07-24T13:30:11;2.75;;;1.63;;
66946;SDS011;53853;51.982;5.928;2022-07-24T13:32:44;3.28;;;2.35;;
66946;SDS011;53853;51.982;5.928;2022-07-24T13:35:14;3.73;;;2.07;;
66946;SDS011;53853;51.982;5.928;2022-07-24T13:37:43;3.78;;;2.00;;
66946;SDS011;53853;51.982;5.928;2022-07-24T13:40:13;2.60;;;2.00;;
66946;SDS011;53853;51.982;5.928;2022-07-24T13:42:43;3.55;;;1.98;;
66946;SDS011;53853;51.982;5.928;2022-07-24T13:45:13;2.70;;;2.00;;
66946;SDS011;53853;51.982;5.928;2022-07-24T13:47:46;2.58;;;1.98;;
66946;SDS011;53853;51.982;5.928;2022-07-24T13:50:16;2.97;;;1.90;;
66946;SDS011;53853;51.982;5.928;2022-07-24T13:52:46;3.80;;;2.00;;
66946;SDS011;53853;51.982;5.928;2022-07-24T13:55:15;3.00;;;2.20;;
66946;SDS011;53853;51.982;5.928;2022-07-24T13:57:45;2.72;;;1.90;;
66946;SDS011;53853;51.982;5.928;2022-07-24T14:00:15;3.17;;;1.95;;
66946;SDS011;53853;51.982;5.928;2022-07-24T14:02:48;2.60;;;1.80;;
66946;SDS011;53853;51.982;5.928;2022-07-24T14:05:20;2.80;;;1.80;;
66946;SDS011;53853;51.982;5.928;2022-07-24T14:07:51;3.03;;;1.95;;
66946;SDS011;53853;51.982;5.928;2022-07-24T14:10:22;2.40;;;1.92;;
66946;SDS011;53853;51.982;5.928;2022-07-24T14:12:53;2.40;;;1.77;;
66946;SDS011;53853;51.982;5.928;2022-07-24T14:15:22;2.55;;;1.63;;
66946;SDS011;53853;51.982;5.928;2022-07-24T14:17:57;3.60;;;2.22;;
66946;SDS011;53853;51.982;5.928;2022-07-24T14:20:27;3.53;;;1.33;;
66946;SDS011;53853;51.982;5.928;2022-07-24T14:22:57;3.45;;;2.00;;
66946;SDS011;53853;51.982;5.928;2022-07-24T14:25:26;4.45;;;2.95;;
66946;SDS011;53853;51.982;5.928;2022-07-24T14:27:56;2.72;;;2.10;;
66946;SDS011;53853;51.982;5.928;2022-07-24T14:30:26;3.33;;;2.13;;
66946;SDS011;53853;51.982;5.928;2022-07-24T14:32:58;4.40;;;2.40;;
66946;SDS011;53853;51.982;5.928;2022-07-24T14:35:28;3.00;;;2.00;;
66946;SDS011;53853;51.982;5.928;2022-07-24T14:37:58;4.00;;;2.30;;
66946;SDS011;53853;51.982;5.928;2022-07-24T14:40:28;3.17;;;1.83;;
66946;SDS011;53853;51.982;5.928;2022-07-24T14:42:58;2.30;;;1.65;;
66946;SDS011;53853;51.982;5.928;2022-07-24T14:45:28;3.28;;;1.70;;
66946;SDS011;53853;51.982;5.928;2022-07-24T14:48:00;2.60;;;1.92;;
66946;SDS011;53853;51.982;5.928;2022-07-24T14:50:30;2.92;;;1.75;;
66946;SDS011;53853;51.982;5.928;2022-07-24T14:53:00;2.42;;;1.70;;
66946;SDS011;53853;51.982;5.928;2022-07-24T14:55:30;2.55;;;1.80;;
66946;SDS011;53853;51.982;5.928;2022-07-24T14:58:00;3.13;;;2.10;;
66946;SDS011;53853;51.982;5.928;2022-07-24T15:00:31;2.67;;;2.08;;
66946;SDS011;53853;51.982;5.928;2022-07-24T15:03:03;2.85;;;1.77;;
66946;SDS011;53853;51.982;5.928;2022-07-24T15:05:33;3.03;;;2.03;;
66946;SDS011;53853;51.982;5.928;2022-07-24T15:08:03;4.05;;;2.50;;
66946;SDS011;53853;51.982;5.928;2022-07-24T15:10:33;3.78;;;2.40;;
66946;SDS011;53853;51.982;5.928;2022-07-24T15:13:03;3.47;;;2.30;;
66946;SDS011;53853;51.982;5.928;2022-07-24T15:15:33;4.28;;;3.42;;
66946;SDS011;53853;51.982;5.928;2022-07-24T15:18:05;2.95;;;2.00;;
66946;SDS011;53853;51.982;5.928;2022-07-24T15:20:35;4.13;;;2.47;;
66946;SDS011;53853;51.982;5.928;2022-07-24T15:23:05;2.72;;;1.92;;